sensor_id;sensor_type;location;lat;lon;timestamp;pressure;altitude;pressure_sealevel;temperature;humidity
25638;BME280;13496;51.040;13.680;2022-07-23T00:03:06;99811.19;;;30.23;36.62
25638;BME280;13496;51.040;13.680;2022-07-23T00:08:07;99808.22;;;30.20;36.54
25638;BME280;13496;51.040;13.680;2022-07-23T00:13:09;99802.31;;;30.18;36.77
25638;BME280;13496;51.040;13.680;2022-07-23T00:18:11;99803.94;;;30.19;36.38
25638;BME280;13496;51.040;13.680;2022-07-23T00:23:13;99806.31;;;30.15;36.66
25638;BME280;13496;51.040;13.680;2022-07-23T00:28:15;99795.06;;;30.13;36.80
25638;BME280;13496;51.040;13.680;2022-07-23T00:33:17;99793.69;;;30.10;36.97
25638;BME280;13496;51.040;13.680;2022-07-23T00:38:19;99796.94;;;30.07;36.42
25638;BME280;13496;51.040;13.680;2022-07-23T00:43:21;99789.16;;;30.06;36.55
25638;BME280;13496;51.040;13.680;2022-07-23T00:48:23;99787.00;;;30.03;36.73
25638;BME280;13496;51.040;13.680;2022-07-23T00:53:25;99801.44;;;30.02;36.83
25638;BME280;13496;51.040;13.680;2022-07-23T00:58:27;99795.00;;;29.98;36.94
25638;BME280;13496;51.040;13.680;2022-07-23T01:03:30;99785.63;;;29.95;36.79
25638;BME280;13496;51.040;13.680;2022-07-23T01:08:32;99784.84;;;29.95;36.69
25638;BME280;13496;51.040;13.680;2022-07-23T01:13:33;99780.56;;;29.94;36.49
25638;BME280;13496;51.040;13.680;2022-07-23T01:18:35;99775.19;;;29.94;36.51
25638;BME280;13496;51.040;13.680;2022-07-23T01:23:37;99765.59;;;29.93;36.96
25638;BME280;13496;51.040;13.680;2022-07-23T01:28:40;99753.53;;;29.90;37.14
25638;BME280;13496;51.040;13.680;2022-07-23T01:33:41;99744.13;;;29.87;36.70
25638;BME280;13496;51.040;13.680;2022-07-23T01:38:44;99735.84;;;29.84;37.05
25638;BME280;13496;51.040;13.680;2022-07-23T01:43:46;99727.56;;;29.85;37.00
25638;BME280;13496;51.040;13.680;2022-07-23T01:48:48;99717.38;;;29.82;36.92
25638;BME280;13496;51.040;13.680;2022-07-23T01:54:26;99717.38;;;29.82;37.19
25638;BME280;13496;51.040;13.680;2022-07-23T01:59:29;99717.91;;;29.79;37.01
25638;BME280;13496;51.040;13.680;2022-07-23T02:04:31;99710.69;;;29.75;37.22
25638;BME280;13496;51.040;13.680;2022-07-23T02:09:34;99708.00;;;29.75;37.00
25638;BME280;13496;51.040;13.680;2022-07-23T02:14:36;99705.84;;;29.72;36.82
25638;BME280;13496;51.040;13.680;2022-07-23T02:19:38;99710.41;;;29.71;37.26
25638;BME280;13496;51.040;13.680;2022-07-23T02:24:39;99705.31;;;29.70;37.20
25638;BME280;13496;51.040;13.680;2022-07-23T02:29:41;99694.09;;;29.68;37.31
25638;BME280;13496;51.040;13.680;2022-07-23T02:34:43;99710.94;;;29.68;37.22
25638;BME280;13496;51.040;13.680;2022-07-23T02:39:45;99701.53;;;29.65;36.89
25638;BME280;13496;51.040;13.680;2022-07-23T02:44:48;99694.59;;;29.64;37.21
25638;BME280;13496;51.040;13.680;2022-07-23T02:49:50;99672.38;;;29.59;37.40
25638;BME280;13496;51.040;13.680;2022-07-23T02:54:51;99677.16;;;29.57;37.06
25638;BME280;13496;51.040;13.680;2022-07-23T02:59:53;99671.25;;;29.55;37.46
25638;BME280;13496;51.040;13.680;2022-07-23T03:04:55;99678.22;;;29.51;37.08
25638;BME280;13496;51.040;13.680;2022-07-23T03:09:57;99680.88;;;29.51;37.28
25638;BME280;13496;51.040;13.680;2022-07-23T03:14:58;99673.66;;;29.51;37.53
25638;BME280;13496;51.040;13.680;2022-07-23T03:20:03;99676.59;;;29.50;37.62
25638;BME280;13496;51.040;13.680;2022-07-23T03:25:05;99669.91;;;29.47;37.22
25638;BME280;13496;51.040;13.680;2022-07-23T03:30:10;99665.34;;;29.48;37.42
25638;BME280;13496;51.040;13.680;2022-07-23T03:35:13;99661.09;;;29.47;37.21
25638;BME280;13496;51.040;13.680;2022-07-23T03:40:24;99651.72;;;29.44;37.60
25638;BME280;13496;51.040;13.680;2022-07-23T03:45:26;99658.13;;;29.43;37.65
25638;BME280;13496;51.040;13.680;2022-07-23T03:50:28;99654.66;;;29.42;37.00
25638;BME280;13496;51.040;13.680;2022-07-23T03:55:29;99658.41;;;29.41;37.29
25638;BME280;13496;51.040;13.680;2022-07-23T04:00:31;99650.34;;;29.36;37.52
25638;BME280;13496;51.040;13.680;2022-07-23T04:05:33;99665.88;;;29.39;37.64
25638;BME280;13496;51.040;13.680;2022-07-23T04:10:42;99653.84;;;29.37;37.25
25638;BME280;13496;51.040;13.680;2022-07-23T04:15:44;99650.34;;;29.36;37.80
25638;BME280;13496;51.040;13.680;2022-07-23T04:20:46;99649.56;;;29.36;37.33
25638;BME280;13496;51.040;13.680;2022-07-23T04:25:48;99654.91;;;29.31;37.41
25638;BME280;13496;51.040;13.680;2022-07-23T04:30:50;99656.22;;;29.28;37.72
25638;BME280;13496;51.040;13.680;2022-07-23T04:35:53;99672.00;;;29.30;37.41
25638;BME280;13496;51.040;13.680;2022-07-23T04:40:56;99665.00;;;29.24;38.01
25638;BME280;13496;51.040;13.680;2022-07-23T04:45:57;99647.91;;;29.25;37.67
25638;BME280;13496;51.040;13.680;2022-07-23T04:51:00;99667.19;;;29.27;37.31
25638;BME280;13496;51.040;13.680;2022-07-23T04:56:04;99670.88;;;29.26;37.74
25638;BME280;13496;51.040;13.680;2022-07-23T05:01:07;99661.81;;;29.27;37.54
25638;BME280;13496;51.040;13.680;2022-07-23T05:06:11;99649.25;;;29.27;37.80
25638;BME280;13496;51.040;13.680;2022-07-23T05:11:12;99658.88;;;29.23;37.55
25638;BME280;13496;51.040;13.680;2022-07-23T05:16:14;99678.66;;;29.27;37.56
25638;BME280;13496;51.040;13.680;2022-07-23T05:21:18;99684.53;;;29.24;37.68
25638;BME280;13496;51.040;13.680;2022-07-23T05:26:19;99679.44;;;29.23;37.90
25638;BME280;13496;51.040;13.680;2022-07-23T05:31:21;99683.16;;;29.22;37.92
25638;BME280;13496;51.040;13.680;2022-07-23T05:36:23;99686.66;;;29.22;37.52
25638;BME280;13496;51.040;13.680;2022-07-23T05:41:28;99731.53;;;29.20;37.86
25638;BME280;13496;51.040;13.680;2022-07-23T05:46:30;99747.84;;;29.18;37.72
25638;BME280;13496;51.040;13.680;2022-07-23T05:51:37;99737.13;;;29.13;37.84
25638;BME280;13496;51.040;13.680;2022-07-23T05:56:40;99755.56;;;29.15;37.81
25638;BME280;13496;51.040;13.680;2022-07-23T06:01:42;99779.88;;;29.13;37.50
25638;BME280;13496;51.040;13.680;2022-07-23T06:06:46;99788.97;;;29.12;37.99
25638;BME280;13496;51.040;13.680;2022-07-23T06:11:47;99791.91;;;29.11;37.81
25638;BME280;13496;51.040;13.680;2022-07-23T06:16:49;99793.22;;;29.08;37.63
25638;BME280;13496;51.040;13.680;2022-07-23T06:21:51;99807.63;;;29.07;37.63
25638;BME280;13496;51.040;13.680;2022-07-23T06:26:54;99821.00;;;29.07;37.99
25638;BME280;13496;51.040;13.680;2022-07-23T06:31:55;99822.84;;;29.07;37.72
25638;BME280;13496;51.040;13.680;2022-07-23T06:36:57;99818.34;;;29.12;37.42
25638;BME280;13496;51.040;13.680;2022-07-23T06:42:01;99824.75;;;29.11;37.95
25638;BME280;13496;51.040;13.680;2022-07-23T06:47:14;99820.22;;;29.12;37.60
25638;BME280;13496;51.040;13.680;2022-07-23T06:52:16;99818.06;;;29.14;37.40
25638;BME280;13496;51.040;13.680;2022-07-23T06:57:18;99811.13;;;29.13;37.80
25638;BME280;13496;51.040;13.680;2022-07-23T07:02:20;99815.41;;;29.14;37.54
25638;BME280;13496;51.040;13.680;2022-07-23T07:07:23;99806.34;;;29.15;37.71
25638;BME280;13496;51.040;13.680;2022-07-23T07:12:24;99783.91;;;29.16;37.91
25638;BME280;13496;51.040;13.680;2022-07-23T07:17:26;99767.56;;;29.12;37.85
25638;BME280;13496;51.040;13.680;2022-07-23T07:22:28;99767.88;;;29.16;37.87
25638;BME280;13496;51.040;13.680;2022-07-23T07:27:29;99796.69;;;29.14;37.48
25638;BME280;13496;51.040;13.680;2022-07-23T07:32:31;99787.66;;;29.15;37.92
25638;BME280;13496;51.040;13.680;2022-07-23T07:37:37;99785.25;;;29.18;37.66
25638;BME280;13496;51.040;13.680;2022-07-23T07:42:50;99804.25;;;29.22;37.53
25638;BME280;13496;51.040;13.680;2022-07-23T07:47:52;99800.31;;;29.30;37.15
25638;BME280;13496;51.040;13.680;2022-07-23T07:52:54;99801.63;;;29.32;37.47
25638;BME280;13496;51.040;13.680;2022-07-23T07:57:56;99786.16;;;29.34;37.25
25638;BME280;13496;51.040;13.680;2022-07-23T08:02:58;99768.81;;;29.37;37.14
25638;BME280;13496;51.040;13.680;2022-07-23T08:07:59;99771.72;;;29.40;36.76
25638;BME280;13496;51.040;13.680;2022-07-23T08:13:01;99770.13;;;29.39;37.11
25638;BME280;13496;51.040;13.680;2022-07-23T08:18:03;99766.66;;;29.39;37.10
25638;BME280;13496;51.040;13.680;2022-07-23T08:23:07;99754.66;;;29.41;37.22
25638;BME280;13496;51.040;13.680;2022-07-23T08:28:11;99762.91;;;29.40;37.22
25638;BME280;13496;51.040;13.680;2022-07-23T08:33:15;99758.63;;;29.39;37.36
25638;BME280;13496;51.040;13.680;2022-07-23T08:38:19;99755.44;;;29.42;37.03
25638;BME280;13496;51.040;13.680;2022-07-23T08:43:24;99757.34;;;29.47;37.04
25638;BME280;13496;51.040;13.680;2022-07-23T08:48:32;99758.94;;;29.48;37.25
25638;BME280;13496;51.040;13.680;2022-07-23T08:53:34;99763.53;;;29.57;37.16
25638;BME280;13496;51.040;13.680;2022-07-23T08:58:37;99762.72;;;29.57;36.92
25638;BME280;13496;51.040;13.680;2022-07-23T09:03:38;99775.25;;;29.51;37.00
25638;BME280;13496;51.040;13.680;2022-07-23T09:08:44;99776.09;;;29.52;36.87
25638;BME280;13496;51.040;13.680;2022-07-23T09:13:49;99785.16;;;29.51;37.08
25638;BME280;13496;51.040;13.680;2022-07-23T09:19:04;99784.91;;;29.52;36.78
25638;BME280;13496;51.040;13.680;2022-07-23T09:24:10;99778.28;;;29.60;37.09
25638;BME280;13496;51.040;13.680;2022-07-23T09:29:16;99787.41;;;29.64;36.90
25638;BME280;13496;51.040;13.680;2022-07-23T09:34:23;99778.28;;;29.60;36.86
25638;BME280;13496;51.040;13.680;2022-07-23T09:39:28;99784.72;;;29.64;36.69
25638;BME280;13496;51.040;13.680;2022-07-23T09:44:30;99795.94;;;29.61;36.94
25638;BME280;13496;51.040;13.680;2022-07-23T09:49:32;99800.22;;;29.62;37.05
25638;BME280;13496;51.040;13.680;2022-07-23T09:54:36;99802.88;;;29.62;37.05
25638;BME280;13496;51.040;13.680;2022-07-23T09:59:38;99800.78;;;29.64;36.91
25638;BME280;13496;51.040;13.680;2022-07-23T10:04:40;99803.97;;;29.66;36.70
25638;BME280;13496;51.040;13.680;2022-07-23T10:10:01;99817.91;;;29.68;37.06
25638;BME280;13496;51.040;13.680;2022-07-23T10:15:35;99812.84;;;29.72;36.67
25638;BME280;13496;51.040;13.680;2022-07-23T10:20:38;99819.00;;;29.72;36.86
25638;BME280;13496;51.040;13.680;2022-07-23T10:25:57;99816.81;;;29.69;36.65
25638;BME280;13496;51.040;13.680;2022-07-23T10:31:31;99823.81;;;29.75;36.60
25638;BME280;13496;51.040;13.680;2022-07-23T10:36:44;99840.66;;;29.76;36.82
25638;BME280;13496;51.040;13.680;2022-07-23T10:41:48;99838.50;;;29.73;36.84
25638;BME280;13496;51.040;13.680;2022-07-23T10:47:02;99844.72;;;29.78;36.88
25638;BME280;13496;51.040;13.680;2022-07-23T10:52:26;99847.91;;;29.80;36.66
25638;BME280;13496;51.040;13.680;2022-07-23T10:57:28;99840.16;;;29.84;36.51
25638;BME280;13496;51.040;13.680;2022-07-23T11:02:30;99847.16;;;29.90;36.69
25638;BME280;13496;51.040;13.680;2022-07-23T11:07:33;99851.44;;;29.91;36.70
25638;BME280;13496;51.040;13.680;2022-07-23T11:12:35;99824.69;;;29.91;36.56
25638;BME280;13496;51.040;13.680;2022-07-23T11:27:47;99847.69;;;29.92;36.31
25638;BME280;13496;51.040;13.680;2022-07-23T11:32:48;99868.06;;;29.93;36.52
25638;BME280;13496;51.040;13.680;2022-07-23T11:37:51;99854.91;;;29.92;36.44
25638;BME280;13496;51.040;13.680;2022-07-23T11:47:58;99863.22;;;29.90;36.48
25638;BME280;13496;51.040;13.680;2022-07-23T11:53:00;99866.69;;;29.90;36.87
25638;BME280;13496;51.040;13.680;2022-07-23T11:58:02;99871.25;;;29.90;36.61
25638;BME280;13496;51.040;13.680;2022-07-23T12:03:04;99874.72;;;29.90;36.41
25638;BME280;13496;51.040;13.680;2022-07-23T12:08:08;99863.47;;;29.88;36.69
25638;BME280;13496;51.040;13.680;2022-07-23T12:13:18;99866.41;;;29.92;36.51
25638;BME280;13496;51.040;13.680;2022-07-23T12:18:23;99877.94;;;29.93;36.75
25638;BME280;13496;51.040;13.680;2022-07-23T12:23:26;99881.44;;;29.98;36.63
25638;BME280;13496;51.040;13.680;2022-07-23T12:28:32;99882.75;;;29.96;36.38
25638;BME280;13496;51.040;13.680;2022-07-23T12:33:38;99884.91;;;29.99;36.45
25638;BME280;13496;51.040;13.680;2022-07-23T12:38:47;99887.06;;;30.02;36.41
25638;BME280;13496;51.040;13.680;2022-07-23T12:43:50;99883.31;;;29.98;36.44
25638;BME280;13496;51.040;13.680;2022-07-23T12:48:53;99872.91;;;30.01;36.38
25638;BME280;13496;51.040;13.680;2022-07-23T12:53:58;99882.81;;;30.06;36.45
25638;BME280;13496;51.040;13.680;2022-07-23T13:04:09;99884.44;;;30.12;36.63
25638;BME280;13496;51.040;13.680;2022-07-23T13:09:19;99885.50;;;30.11;36.35
25638;BME280;13496;51.040;13.680;2022-07-23T13:14:21;99893.50;;;30.06;36.67
25638;BME280;13496;51.040;13.680;2022-07-23T13:19:23;99895.69;;;30.09;36.39
25638;BME280;13496;51.040;13.680;2022-07-23T13:24:25;99893.50;;;30.06;36.70
25638;BME280;13496;51.040;13.680;2022-07-23T13:29:27;99888.72;;;30.08;36.65
25638;BME280;13496;51.040;13.680;2022-07-23T13:34:28;99883.91;;;30.10;36.93
25638;BME280;13496;51.040;13.680;2022-07-23T13:39:30;99886.38;;;30.17;36.48
25638;BME280;13496;51.040;13.680;2022-07-23T13:44:32;99897.84;;;30.12;36.65
25638;BME280;13496;51.040;13.680;2022-07-23T13:49:33;99884.41;;;30.07;36.81
25638;BME280;13496;51.040;13.680;2022-07-23T13:54:35;99874.53;;;30.12;36.43
25638;BME280;13496;51.040;13.680;2022-07-23T13:59:37;99890.09;;;30.16;36.57
25638;BME280;13496;51.040;13.680;2022-07-23T14:04:39;99888.16;;;30.06;37.05
25638;BME280;13496;51.040;13.680;2022-07-23T14:09:40;99887.16;;;30.17;36.61
25638;BME280;13496;51.040;13.680;2022-07-23T14:14:42;99879.41;;;30.21;36.52
25638;BME280;13496;51.040;13.680;2022-07-23T14:19:44;99885.03;;;30.19;36.76
25638;BME280;13496;51.040;13.680;2022-07-23T14:24:46;99882.38;;;30.24;36.58
25638;BME280;13496;51.040;13.680;2022-07-23T14:29:48;99887.22;;;30.27;36.44
25638;BME280;13496;51.040;13.680;2022-07-23T14:34:50;99876.78;;;30.31;36.50
25638;BME280;13496;51.040;13.680;2022-07-23T14:39:51;99864.44;;;30.25;36.81
25638;BME280;13496;51.040;13.680;2022-07-23T14:44:53;99867.16;;;30.30;36.66
25638;BME280;13496;51.040;13.680;2022-07-23T14:49:55;99878.38;;;30.27;36.37
25638;BME280;13496;51.040;13.680;2022-07-23T14:54:57;99879.69;;;30.24;36.51
25638;BME280;13496;51.040;13.680;2022-07-23T14:59:58;99882.94;;;30.26;36.55
25638;BME280;13496;51.040;13.680;2022-07-23T15:05:00;99878.63;;;30.25;36.30
25638;BME280;13496;51.040;13.680;2022-07-23T15:10:02;99897.63;;;30.24;36.77
25638;BME280;13496;51.040;13.680;2022-07-23T15:15:04;99899.56;;;30.33;36.61
25638;BME280;13496;51.040;13.680;2022-07-23T15:20:07;99899.00;;;30.31;36.56
25638;BME280;13496;51.040;13.680;2022-07-23T15:25:09;99886.16;;;30.33;36.39
25638;BME280;13496;51.040;13.680;2022-07-23T15:30:10;99891.25;;;30.30;36.76
25638;BME280;13496;51.040;13.680;2022-07-23T15:35:12;99880.81;;;30.33;36.29
25638;BME280;13496;51.040;13.680;2022-07-23T15:40:14;99882.38;;;30.29;36.69
25638;BME280;13496;51.040;13.680;2022-07-23T15:45:16;99883.97;;;30.25;36.49
25638;BME280;13496;51.040;13.680;2022-07-23T15:50:17;99882.94;;;30.26;36.60
25638;BME280;13496;51.040;13.680;2022-07-23T15:55:19;99872.22;;;30.31;36.69
25638;BME280;13496;51.040;13.680;2022-07-23T16:00:21;99869.81;;;30.30;36.30
25638;BME280;13496;51.040;13.680;2022-07-23T16:05:23;99866.88;;;30.26;36.78
25638;BME280;13496;51.040;13.680;2022-07-23T16:10:34;99873.81;;;30.22;36.40
25638;BME280;13496;51.040;13.680;2022-07-23T16:15:36;99870.88;;;30.24;36.54
25638;BME280;13496;51.040;13.680;2022-07-23T16:20:38;99875.94;;;30.25;36.51
25638;BME280;13496;51.040;13.680;2022-07-23T16:25:39;99873.28;;;30.25;36.33
25638;BME280;13496;51.040;13.680;2022-07-23T16:30:41;99879.19;;;30.27;36.80
25638;BME280;13496;51.040;13.680;2022-07-23T16:35:44;99886.38;;;30.22;36.63
25638;BME280;13496;51.040;13.680;2022-07-23T16:40:46;99881.56;;;30.19;36.70
25638;BME280;13496;51.040;13.680;2022-07-23T16:45:48;99880.13;;;30.11;36.96
25638;BME280;13496;51.040;13.680;2022-07-23T16:50:49;99879.63;;;30.14;36.55
25638;BME280;13496;51.040;13.680;2022-07-23T16:55:51;99877.50;;;30.16;36.95
25638;BME280;13496;51.040;13.680;2022-07-23T17:00:53;99886.38;;;30.17;36.89
25638;BME280;13496;51.040;13.680;2022-07-23T17:05:55;99882.84;;;30.16;36.51
25638;BME280;13496;51.040;13.680;2022-07-23T17:10:57;99886.38;;;30.22;36.44
25638;BME280;13496;51.040;13.680;2022-07-23T17:15:59;99884.25;;;30.24;36.35
25638;BME280;13496;51.040;13.680;2022-07-23T17:21:00;99890.41;;;30.29;36.10
25638;BME280;13496;51.040;13.680;2022-07-23T17:26:04;99882.94;;;30.26;36.75
25638;BME280;13496;51.040;13.680;2022-07-23T17:31:06;99890.69;;;30.28;36.47
25638;BME280;13496;51.040;13.680;2022-07-23T17:36:08;99894.16;;;30.28;36.57
25638;BME280;13496;51.040;13.680;2022-07-23T17:41:10;99903.00;;;30.29;36.08
25638;BME280;13496;51.040;13.680;2022-07-23T17:46:12;99900.59;;;30.27;36.30
25638;BME280;13496;51.040;13.680;2022-07-23T17:51:13;99909.69;;;30.26;36.12
25638;BME280;13496;51.040;13.680;2022-07-23T17:56:15;99917.72;;;30.26;36.49
25638;BME280;13496;51.040;13.680;2022-07-23T18:01:17;99915.81;;;30.22;36.63
25638;BME280;13496;51.040;13.680;2022-07-23T18:06:19;99917.19;;;30.24;36.42
25638;BME280;13496;51.040;13.680;2022-07-23T18:11:21;99922.00;;;30.22;36.51
25638;BME280;13496;51.040;13.680;2022-07-23T18:16:22;99919.31;;;30.22;36.20
25638;BME280;13496;51.040;13.680;2022-07-23T18:21:24;99929.75;;;30.19;36.53
25638;BME280;13496;51.040;13.680;2022-07-23T18:26:26;99922.44;;;30.14;36.74
25638;BME280;13496;51.040;13.680;2022-07-23T18:31:27;99922.44;;;30.14;36.92
25638;BME280;13496;51.040;13.680;2022-07-23T18:36:29;99935.81;;;30.09;37.03
25638;BME280;13496;51.040;13.680;2022-07-23T18:41:33;99936.84;;;30.03;36.99
25638;BME280;13496;51.040;13.680;2022-07-23T18:46:35;99946.47;;;29.99;36.63
25638;BME280;13496;51.040;13.680;2022-07-23T18:51:37;99946.44;;;29.94;37.22
25638;BME280;13496;51.040;13.680;2022-07-23T18:56:39;99954.47;;;29.94;37.19
25638;BME280;13496;51.040;13.680;2022-07-23T19:01:41;99957.66;;;29.90;37.04
25638;BME280;13496;51.040;13.680;2022-07-23T19:06:43;99957.94;;;29.89;37.26
25638;BME280;13496;51.040;13.680;2022-07-23T19:11:45;99969.69;;;29.88;37.16
25638;BME280;13496;51.040;13.680;2022-07-23T19:16:46;99970.19;;;29.85;37.18
25638;BME280;13496;51.040;13.680;2022-07-23T19:21:49;99983.84;;;29.83;37.12
25638;BME280;13496;51.040;13.680;2022-07-23T19:26:51;99985.97;;;29.81;37.21
25638;BME280;13496;51.040;13.680;2022-07-23T19:31:52;99987.00;;;29.80;36.95
25638;BME280;13496;51.040;13.680;2022-07-23T19:36:54;99986.47;;;29.78;37.18
25638;BME280;13496;51.040;13.680;2022-07-23T19:41:56;99986.72;;;29.77;37.07
25638;BME280;13496;51.040;13.680;2022-07-23T19:46:57;99993.94;;;29.76;37.36
25638;BME280;13496;51.040;13.680;2022-07-23T19:51:59;99993.41;;;29.74;37.29
25638;BME280;13496;51.040;13.680;2022-07-23T19:57:01;99992.84;;;29.72;37.31
25638;BME280;13496;51.040;13.680;2022-07-23T20:02:03;100002.75;;;29.72;37.08
25638;BME280;13496;51.040;13.680;2022-07-23T20:07:04;100014.50;;;29.71;36.70
25638;BME280;13496;51.040;13.680;2022-07-23T20:12:09;100020.09;;;29.69;37.30
25638;BME280;13496;51.040;13.680;2022-07-23T20:17:11;100011.28;;;29.69;37.06
25638;BME280;13496;51.040;13.680;2022-07-23T20:22:13;100013.66;;;29.65;37.12
25638;BME280;13496;51.040;13.680;2022-07-23T20:27:14;100029.69;;;29.65;37.17
25638;BME280;13496;51.040;13.680;2022-07-23T20:32:16;100025.41;;;29.64;37.48
25638;BME280;13496;51.040;13.680;2022-07-23T20:37:18;100029.16;;;29.63;37.28
25638;BME280;13496;51.040;13.680;2022-07-23T20:42:19;100035.56;;;29.62;37.15
25638;BME280;13496;51.040;13.680;2022-07-23T20:47:21;100040.38;;;29.60;37.10
25638;BME280;13496;51.040;13.680;2022-07-23T20:52:23;100042.25;;;29.59;37.05
25638;BME280;13496;51.040;13.680;2022-07-23T20:57:25;100044.09;;;29.59;37.30
25638;BME280;13496;51.040;13.680;2022-07-23T21:02:26;100049.19;;;29.60;37.46
25638;BME280;13496;51.040;13.680;2022-07-23T21:07:28;100051.59;;;29.62;37.08
25638;BME280;13496;51.040;13.680;2022-07-23T21:12:30;100058.03;;;29.61;37.25
25638;BME280;13496;51.040;13.680;2022-07-23T21:17:32;100069.22;;;29.58;37.11
25638;BME280;13496;51.040;13.680;2022-07-23T21:22:33;100067.00;;;29.55;36.99
25638;BME280;13496;51.040;13.680;2022-07-23T21:27:35;100069.94;;;29.53;37.24
25638;BME280;13496;51.040;13.680;2022-07-23T21:32:37;100073.13;;;29.50;37.15
25638;BME280;13496;51.040;13.680;2022-07-23T21:37:39;100067.78;;;29.50;37.15
25638;BME280;13496;51.040;13.680;2022-07-23T21:42:41;100078.19;;;29.47;37.15
25638;BME280;13496;51.040;13.680;2022-07-23T21:47:43;100079.47;;;29.44;37.15
25638;BME280;13496;51.040;13.680;2022-07-23T21:52:44;100088.56;;;29.43;37.43
25638;BME280;13496;51.040;13.680;2022-07-23T21:57:46;100092.84;;;29.44;37.52
25638;BME280;13496;51.040;13.680;2022-07-23T22:02:48;100098.94;;;29.39;37.42
25638;BME280;13496;51.040;13.680;2022-07-23T22:07:50;100111.78;;;29.37;37.29
25638;BME280;13496;51.040;13.680;2022-07-23T22:12:52;100107.16;;;29.33;37.17
25638;BME280;13496;51.040;13.680;2022-07-23T22:17:53;100113.59;;;29.32;37.40
25638;BME280;13496;51.040;13.680;2022-07-23T22:22:55;100107.44;;;29.31;37.57
25638;BME280;13496;51.040;13.680;2022-07-23T22:27:57;100110.59;;;29.28;37.63
25638;BME280;13496;51.040;13.680;2022-07-23T22:32:59;100108.72;;;29.29;37.76
25638;BME280;13496;51.040;13.680;2022-07-23T22:38:01;100107.31;;;29.21;37.60
25638;BME280;13496;51.040;13.680;2022-07-23T22:43:02;100116.41;;;29.20;37.84
25638;BME280;13496;51.040;13.680;2022-07-23T22:48:04;100114.78;;;29.19;37.45
25638;BME280;13496;51.040;13.680;2022-07-23T22:53:06;100119.31;;;29.18;37.70
25638;BME280;13496;51.040;13.680;2022-07-23T22:58:08;100116.56;;;29.13;37.94
25638;BME280;13496;51.040;13.680;2022-07-23T23:03:09;100122.72;;;29.14;37.48
25638;BME280;13496;51.040;13.680;2022-07-23T23:08:11;100122.41;;;29.10;37.92
25638;BME280;13496;51.040;13.680;2022-07-23T23:13:13;100125.09;;;29.10;37.32
25638;BME280;13496;51.040;13.680;2022-07-23T23:18:14;100129.09;;;29.08;37.39
25638;BME280;13496;51.040;13.680;2022-07-23T23:23:16;100128.81;;;29.09;37.76
25638;BME280;13496;51.040;13.680;2022-07-23T23:28:18;100132.00;;;29.06;37.52
25638;BME280;13496;51.040;13.680;2022-07-23T23:33:19;100145.59;;;29.05;37.42
25638;BME280;13496;51.040;13.680;2022-07-23T23:38:21;100146.59;;;28.99;37.55
25638;BME280;13496;51.040;13.680;2022-07-23T23:43:23;100149.84;;;29.01;37.57
25638;BME280;13496;51.040;13.680;2022-07-23T23:48:25;100149.50;;;28.97;37.42
25638;BME280;13496;51.040;13.680;2022-07-23T23:53:26;100159.06;;;28.93;37.61
25638;BME280;13496;51.040;13.680;2022-07-23T23:58:28;100154.19;;;28.90;37.59
